sensor_id;sensor_type;location;lat;lon;timestamp;P1;durP1;ratioP1;P2;durP2;ratioP2
13834;SDS011;6988;52.614;13.500;2023-04-28T00:01:08;6.83;;;3.90;;
13834;SDS011;6988;52.614;13.500;2023-04-28T00:06:01;5.57;;;4.10;;
13834;SDS011;6988;52.614;13.500;2023-04-28T00:10:53;5.93;;;4.40;;
13834;SDS011;6988;52.614;13.500;2023-04-28T00:15:45;6.17;;;4.33;;
13834;SDS011;6988;52.614;13.500;2023-04-28T00:20:38;8.93;;;4.13;;
13834;SDS011;6988;52.614;13.500;2023-04-28T00:25:30;7.70;;;4.70;;
13834;SDS011;6988;52.614;13.500;2023-04-28T00:30:22;6.93;;;4.37;;
13834;SDS011;6988;52.614;13.500;2023-04-28T00:35:15;7.43;;;4.20;;
13834;SDS011;6988;52.614;13.500;2023-04-28T00:40:09;7.70;;;4.60;;
13834;SDS011;6988;52.614;13.500;2023-04-28T00:45:02;7.33;;;4.43;;
13834;SDS011;6988;52.614;13.500;2023-04-28T00:49:56;7.77;;;4.40;;
13834;SDS011;6988;52.614;13.500;2023-04-28T00:54:49;5.53;;;4.27;;
13834;SDS011;6988;52.614;13.500;2023-04-28T00:59:42;7.50;;;5.03;;
13834;SDS011;6988;52.614;13.500;2023-04-28T01:04:34;7.13;;;4.90;;
13834;SDS011;6988;52.614;13.500;2023-04-28T01:09:27;6.77;;;5.10;;
13834;SDS011;6988;52.614;13.500;2023-04-28T01:14:19;7.67;;;5.17;;
13834;SDS011;6988;52.614;13.500;2023-04-28T01:19:14;9.03;;;5.23;;
13834;SDS011;6988;52.614;13.500;2023-04-28T01:24:13;7.20;;;5.30;;
13834;SDS011;6988;52.614;13.500;2023-04-28T01:29:05;6.60;;;4.87;;
13834;SDS011;6988;52.614;13.500;2023-04-28T01:33:57;8.37;;;5.70;;
13834;SDS011;6988;52.614;13.500;2023-04-28T01:38:49;7.00;;;5.30;;
13834;SDS011;6988;52.614;13.500;2023-04-28T01:43:43;8.23;;;5.70;;
13834;SDS011;6988;52.614;13.500;2023-04-28T01:48:34;6.87;;;5.10;;
13834;SDS011;6988;52.614;13.500;2023-04-28T01:53:26;6.73;;;5.03;;
13834;SDS011;6988;52.614;13.500;2023-04-28T01:58:18;7.80;;;5.00;;
13834;SDS011;6988;52.614;13.500;2023-04-28T02:03:12;6.20;;;4.60;;
13834;SDS011;6988;52.614;13.500;2023-04-28T02:08:04;6.77;;;4.70;;
13834;SDS011;6988;52.614;13.500;2023-04-28T02:12:56;8.20;;;4.50;;
13834;SDS011;6988;52.614;13.500;2023-04-28T02:17:48;7.43;;;4.87;;
13834;SDS011;6988;52.614;13.500;2023-04-28T02:22:42;8.50;;;4.37;;
13834;SDS011;6988;52.614;13.500;2023-04-28T02:27:34;5.47;;;4.37;;
13834;SDS011;6988;52.614;13.500;2023-04-28T02:32:27;6.73;;;4.93;;
13834;SDS011;6988;52.614;13.500;2023-04-28T02:37:19;6.10;;;4.73;;
13834;SDS011;6988;52.614;13.500;2023-04-28T02:42:14;6.03;;;4.80;;
13834;SDS011;6988;52.614;13.500;2023-04-28T02:47:06;6.47;;;4.30;;
13834;SDS011;6988;52.614;13.500;2023-04-28T02:51:58;6.67;;;4.50;;
13834;SDS011;6988;52.614;13.500;2023-04-28T02:56:49;7.13;;;4.53;;
13834;SDS011;6988;52.614;13.500;2023-04-28T03:01:43;7.97;;;4.17;;
13834;SDS011;6988;52.614;13.500;2023-04-28T03:06:35;7.27;;;4.57;;
13834;SDS011;6988;52.614;13.500;2023-04-28T03:11:26;6.70;;;3.97;;
13834;SDS011;6988;52.614;13.500;2023-04-28T03:16:18;5.57;;;4.13;;
13834;SDS011;6988;52.614;13.500;2023-04-28T03:21:11;5.10;;;4.27;;
13834;SDS011;6988;52.614;13.500;2023-04-28T03:26:03;7.20;;;4.20;;
13834;SDS011;6988;52.614;13.500;2023-04-28T03:30:55;7.60;;;3.93;;
13834;SDS011;6988;52.614;13.500;2023-04-28T03:35:48;6.27;;;3.90;;
13834;SDS011;6988;52.614;13.500;2023-04-28T03:40:42;7.00;;;4.17;;
13834;SDS011;6988;52.614;13.500;2023-04-28T03:45:34;6.27;;;4.03;;
13834;SDS011;6988;52.614;13.500;2023-04-28T03:50:25;7.47;;;4.40;;
13834;SDS011;6988;52.614;13.500;2023-04-28T03:55:18;5.83;;;3.93;;
13834;SDS011;6988;52.614;13.500;2023-04-28T04:00:13;6.47;;;4.50;;
13834;SDS011;6988;52.614;13.500;2023-04-28T04:05:09;7.03;;;4.00;;
13834;SDS011;6988;52.614;13.500;2023-04-28T04:10:01;7.07;;;3.90;;
13834;SDS011;6988;52.614;13.500;2023-04-28T04:14:54;9.97;;;4.07;;
13834;SDS011;6988;52.614;13.500;2023-04-28T04:19:47;7.30;;;4.70;;
13834;SDS011;6988;52.614;13.500;2023-04-28T04:24:39;6.73;;;4.20;;
13834;SDS011;6988;52.614;13.500;2023-04-28T04:29:31;6.00;;;3.90;;
13834;SDS011;6988;52.614;13.500;2023-04-28T04:34:26;6.10;;;4.20;;
13834;SDS011;6988;52.614;13.500;2023-04-28T04:39:20;6.30;;;4.27;;
13834;SDS011;6988;52.614;13.500;2023-04-28T04:44:12;5.40;;;3.90;;
13834;SDS011;6988;52.614;13.500;2023-04-28T04:49:08;7.13;;;4.37;;
13834;SDS011;6988;52.614;13.500;2023-04-28T04:54:00;6.37;;;3.83;;
13834;SDS011;6988;52.614;13.500;2023-04-28T04:58:53;8.03;;;4.97;;
13834;SDS011;6988;52.614;13.500;2023-04-28T05:04:05;6.40;;;5.00;;
13834;SDS011;6988;52.614;13.500;2023-04-28T05:08:57;10.20;;;5.63;;
13834;SDS011;6988;52.614;13.500;2023-04-28T05:13:49;10.57;;;6.17;;
13834;SDS011;6988;52.614;13.500;2023-04-28T05:18:44;9.07;;;6.60;;
13834;SDS011;6988;52.614;13.500;2023-04-28T05:23:36;11.63;;;7.53;;
13834;SDS011;6988;52.614;13.500;2023-04-28T05:28:28;10.63;;;7.57;;
13834;SDS011;6988;52.614;13.500;2023-04-28T05:33:23;13.43;;;6.80;;
13834;SDS011;6988;52.614;13.500;2023-04-28T05:38:15;9.87;;;6.37;;
13834;SDS011;6988;52.614;13.500;2023-04-28T05:43:08;8.77;;;6.37;;
13834;SDS011;6988;52.614;13.500;2023-04-28T05:48:00;8.87;;;5.90;;
13834;SDS011;6988;52.614;13.500;2023-04-28T05:52:56;11.37;;;5.90;;
13834;SDS011;6988;52.614;13.500;2023-04-28T05:57:48;8.30;;;5.00;;
13834;SDS011;6988;52.614;13.500;2023-04-28T06:02:41;9.67;;;4.90;;
13834;SDS011;6988;52.614;13.500;2023-04-28T06:07:33;8.47;;;4.83;;
13834;SDS011;6988;52.614;13.500;2023-04-28T06:12:27;7.03;;;4.30;;
13834;SDS011;6988;52.614;13.500;2023-04-28T06:17:19;6.93;;;4.47;;
13834;SDS011;6988;52.614;13.500;2023-04-28T06:22:11;10.60;;;4.33;;
13834;SDS011;6988;52.614;13.500;2023-04-28T06:27:04;7.23;;;4.43;;
13834;SDS011;6988;52.614;13.500;2023-04-28T06:31:58;8.83;;;4.00;;
13834;SDS011;6988;52.614;13.500;2023-04-28T06:36:49;5.53;;;4.03;;
13834;SDS011;6988;52.614;13.500;2023-04-28T06:41:41;7.10;;;3.87;;
13834;SDS011;6988;52.614;13.500;2023-04-28T06:46:35;7.77;;;3.60;;
13834;SDS011;6988;52.614;13.500;2023-04-28T06:51:29;7.20;;;3.63;;
13834;SDS011;6988;52.614;13.500;2023-04-28T06:56:22;8.27;;;3.47;;
13834;SDS011;6988;52.614;13.500;2023-04-28T07:01:14;5.00;;;3.37;;
13834;SDS011;6988;52.614;13.500;2023-04-28T07:06:06;5.80;;;3.60;;
13834;SDS011;6988;52.614;13.500;2023-04-28T07:11:00;7.40;;;3.47;;
13834;SDS011;6988;52.614;13.500;2023-04-28T07:15:53;5.77;;;2.53;;
13834;SDS011;6988;52.614;13.500;2023-04-28T07:20:45;6.40;;;2.50;;
13834;SDS011;6988;52.614;13.500;2023-04-28T07:25:38;6.73;;;2.30;;
13834;SDS011;6988;52.614;13.500;2023-04-28T07:30:31;4.87;;;2.43;;
13834;SDS011;6988;52.614;13.500;2023-04-28T07:35:23;2.90;;;2.20;;
13834;SDS011;6988;52.614;13.500;2023-04-28T07:40:19;4.27;;;2.50;;
13834;SDS011;6988;52.614;13.500;2023-04-28T07:45:11;4.10;;;2.67;;
13834;SDS011;6988;52.614;13.500;2023-04-28T07:50:07;4.40;;;2.93;;
13834;SDS011;6988;52.614;13.500;2023-04-28T07:54:59;9.40;;;3.10;;
13834;SDS011;6988;52.614;13.500;2023-04-28T07:59:52;6.93;;;2.77;;
13834;SDS011;6988;52.614;13.500;2023-04-28T08:04:43;3.60;;;2.80;;
13834;SDS011;6988;52.614;13.500;2023-04-28T08:09:37;6.17;;;3.53;;
13834;SDS011;6988;52.614;13.500;2023-04-28T08:14:30;7.10;;;3.33;;
13834;SDS011;6988;52.614;13.500;2023-04-28T08:19:22;5.57;;;3.40;;
13834;SDS011;6988;52.614;13.500;2023-04-28T08:24:14;5.83;;;3.40;;
13834;SDS011;6988;52.614;13.500;2023-04-28T08:29:08;5.33;;;3.37;;
13834;SDS011;6988;52.614;13.500;2023-04-28T08:34:01;5.80;;;3.20;;
13834;SDS011;6988;52.614;13.500;2023-04-28T08:38:53;7.53;;;3.60;;
13834;SDS011;6988;52.614;13.500;2023-04-28T08:43:46;8.07;;;3.30;;
13834;SDS011;6988;52.614;13.500;2023-04-28T08:48:40;5.40;;;3.40;;
13834;SDS011;6988;52.614;13.500;2023-04-28T08:53:35;5.87;;;3.23;;
13834;SDS011;6988;52.614;13.500;2023-04-28T08:58:29;5.67;;;3.40;;
13834;SDS011;6988;52.614;13.500;2023-04-28T09:03:21;6.57;;;4.10;;
13834;SDS011;6988;52.614;13.500;2023-04-28T09:08:15;9.70;;;3.90;;
13834;SDS011;6988;52.614;13.500;2023-04-28T09:13:08;5.97;;;4.27;;
13834;SDS011;6988;52.614;13.500;2023-04-28T09:18:00;5.87;;;3.83;;
13834;SDS011;6988;52.614;13.500;2023-04-28T09:22:53;7.60;;;4.20;;
13834;SDS011;6988;52.614;13.500;2023-04-28T09:27:48;7.40;;;4.97;;
13834;SDS011;6988;52.614;13.500;2023-04-28T09:32:41;7.63;;;4.50;;
13834;SDS011;6988;52.614;13.500;2023-04-28T09:37:33;7.10;;;4.30;;
13834;SDS011;6988;52.614;13.500;2023-04-28T09:42:29;7.67;;;4.90;;
13834;SDS011;6988;52.614;13.500;2023-04-28T09:47:25;8.57;;;4.80;;
13834;SDS011;6988;52.614;13.500;2023-04-28T09:52:16;8.67;;;4.93;;
13834;SDS011;6988;52.614;13.500;2023-04-28T09:57:08;8.30;;;5.00;;
13834;SDS011;6988;52.614;13.500;2023-04-28T10:02:01;7.63;;;5.17;;
13834;SDS011;6988;52.614;13.500;2023-04-28T10:06:57;9.93;;;5.30;;
13834;SDS011;6988;52.614;13.500;2023-04-28T10:11:49;10.07;;;5.60;;
13834;SDS011;6988;52.614;13.500;2023-04-28T10:16:41;7.67;;;4.83;;
13834;SDS011;6988;52.614;13.500;2023-04-28T10:21:36;9.03;;;5.10;;
13834;SDS011;6988;52.614;13.500;2023-04-28T10:26:56;7.73;;;5.27;;
13834;SDS011;6988;52.614;13.500;2023-04-28T10:32:14;8.37;;;5.57;;
13834;SDS011;6988;52.614;13.500;2023-04-28T10:37:12;8.13;;;5.60;;
13834;SDS011;6988;52.614;13.500;2023-04-28T10:48:00;10.03;;;5.43;;
13834;SDS011;6988;52.614;13.500;2023-04-28T10:52:55;7.73;;;5.23;;
13834;SDS011;6988;52.614;13.500;2023-04-28T10:57:47;5.87;;;4.87;;
13834;SDS011;6988;52.614;13.500;2023-04-28T11:03:44;9.47;;;5.10;;
13834;SDS011;6988;52.614;13.500;2023-04-28T11:08:40;11.60;;;5.70;;
13834;SDS011;6988;52.614;13.500;2023-04-28T11:13:33;11.50;;;5.10;;
13834;SDS011;6988;52.614;13.500;2023-04-28T11:18:25;8.80;;;4.93;;
13834;SDS011;6988;52.614;13.500;2023-04-28T11:23:18;10.00;;;5.50;;
13834;SDS011;6988;52.614;13.500;2023-04-28T11:28:10;10.03;;;5.33;;
13834;SDS011;6988;52.614;13.500;2023-04-28T11:33:03;9.83;;;5.57;;
13834;SDS011;6988;52.614;13.500;2023-04-28T11:38:02;7.57;;;4.70;;
13834;SDS011;6988;52.614;13.500;2023-04-28T11:42:54;10.20;;;4.87;;
13834;SDS011;6988;52.614;13.500;2023-04-28T11:47:48;8.47;;;5.10;;
13834;SDS011;6988;52.614;13.500;2023-04-28T11:52:48;9.13;;;4.90;;
13834;SDS011;6988;52.614;13.500;2023-04-28T11:57:40;10.20;;;5.50;;
13834;SDS011;6988;52.614;13.500;2023-04-28T12:02:32;9.63;;;4.63;;
13834;SDS011;6988;52.614;13.500;2023-04-28T12:07:25;6.83;;;4.60;;
13834;SDS011;6988;52.614;13.500;2023-04-28T12:12:28;8.63;;;5.03;;
13834;SDS011;6988;52.614;13.500;2023-04-28T12:17:23;9.27;;;5.10;;
13834;SDS011;6988;52.614;13.500;2023-04-28T12:22:16;6.57;;;4.47;;
13834;SDS011;6988;52.614;13.500;2023-04-28T12:27:15;8.10;;;4.53;;
13834;SDS011;6988;52.614;13.500;2023-04-28T12:32:11;11.47;;;5.03;;
13834;SDS011;6988;52.614;13.500;2023-04-28T12:37:04;7.63;;;4.73;;
13834;SDS011;6988;52.614;13.500;2023-04-28T12:42:02;6.73;;;5.10;;
13834;SDS011;6988;52.614;13.500;2023-04-28T12:47:31;10.50;;;5.67;;
13834;SDS011;6988;52.614;13.500;2023-04-28T12:52:23;11.73;;;5.10;;
13834;SDS011;6988;52.614;13.500;2023-04-28T12:57:15;8.73;;;5.03;;
13834;SDS011;6988;52.614;13.500;2023-04-28T13:02:09;7.83;;;5.47;;
13834;SDS011;6988;52.614;13.500;2023-04-28T13:13:34;9.23;;;4.97;;
13834;SDS011;6988;52.614;13.500;2023-04-28T13:18:26;12.10;;;5.63;;
13834;SDS011;6988;52.614;13.500;2023-04-28T13:23:20;8.67;;;5.60;;
13834;SDS011;6988;52.614;13.500;2023-04-28T13:28:12;7.67;;;5.10;;
13834;SDS011;6988;52.614;13.500;2023-04-28T13:33:06;9.63;;;5.30;;
13834;SDS011;6988;52.614;13.500;2023-04-28T13:37:57;9.10;;;5.33;;
13834;SDS011;6988;52.614;13.500;2023-04-28T13:42:52;8.53;;;4.67;;
13834;SDS011;6988;52.614;13.500;2023-04-28T13:47:44;7.63;;;4.47;;
13834;SDS011;6988;52.614;13.500;2023-04-28T13:52:38;8.73;;;5.00;;
13834;SDS011;6988;52.614;13.500;2023-04-28T13:57:30;9.23;;;4.97;;
13834;SDS011;6988;52.614;13.500;2023-04-28T14:02:22;7.23;;;4.43;;
13834;SDS011;6988;52.614;13.500;2023-04-28T14:07:14;9.10;;;4.67;;
13834;SDS011;6988;52.614;13.500;2023-04-28T14:12:08;8.60;;;4.60;;
13834;SDS011;6988;52.614;13.500;2023-04-28T14:17:01;9.10;;;4.40;;
13834;SDS011;6988;52.614;13.500;2023-04-28T14:21:53;7.40;;;4.50;;
13834;SDS011;6988;52.614;13.500;2023-04-28T14:26:45;7.93;;;4.40;;
13834;SDS011;6988;52.614;13.500;2023-04-28T14:31:39;9.43;;;4.47;;
13834;SDS011;6988;52.614;13.500;2023-04-28T14:36:31;7.60;;;4.40;;
13834;SDS011;6988;52.614;13.500;2023-04-28T14:41:24;8.30;;;4.30;;
13834;SDS011;6988;52.614;13.500;2023-04-28T14:46:16;7.10;;;4.33;;
13834;SDS011;6988;52.614;13.500;2023-04-28T14:51:13;6.47;;;3.97;;
13834;SDS011;6988;52.614;13.500;2023-04-28T14:56:05;9.07;;;4.83;;
13834;SDS011;6988;52.614;13.500;2023-04-28T15:00:58;6.23;;;4.60;;
13834;SDS011;6988;52.614;13.500;2023-04-28T15:05:51;5.90;;;4.50;;
13834;SDS011;6988;52.614;13.500;2023-04-28T15:10:44;9.07;;;5.10;;
13834;SDS011;6988;52.614;13.500;2023-04-28T15:15:36;9.30;;;4.60;;
13834;SDS011;6988;52.614;13.500;2023-04-28T15:25:28;8.00;;;4.40;;
13834;SDS011;6988;52.614;13.500;2023-04-28T15:30:22;6.57;;;4.13;;
13834;SDS011;6988;52.614;13.500;2023-04-28T15:35:17;12.30;;;4.77;;
13834;SDS011;6988;52.614;13.500;2023-04-28T15:40:09;9.53;;;5.03;;
13834;SDS011;6988;52.614;13.500;2023-04-28T15:45:04;7.03;;;4.73;;
13834;SDS011;6988;52.614;13.500;2023-04-28T15:50:00;7.97;;;4.47;;
13834;SDS011;6988;52.614;13.500;2023-04-28T15:54:53;7.77;;;4.63;;
13834;SDS011;6988;52.614;13.500;2023-04-28T15:59:45;8.80;;;5.43;;
13834;SDS011;6988;52.614;13.500;2023-04-28T16:04:38;7.97;;;5.00;;
13834;SDS011;6988;52.614;13.500;2023-04-28T16:09:31;6.10;;;4.67;;
13834;SDS011;6988;52.614;13.500;2023-04-28T16:14:23;7.77;;;4.87;;
13834;SDS011;6988;52.614;13.500;2023-04-28T16:19:15;9.73;;;5.37;;
13834;SDS011;6988;52.614;13.500;2023-04-28T16:24:07;9.00;;;5.33;;
13834;SDS011;6988;52.614;13.500;2023-04-28T16:29:01;12.47;;;5.20;;
13834;SDS011;6988;52.614;13.500;2023-04-28T16:33:53;10.23;;;5.40;;
13834;SDS011;6988;52.614;13.500;2023-04-28T16:38:45;10.80;;;5.37;;
13834;SDS011;6988;52.614;13.500;2023-04-28T16:43:36;10.10;;;5.27;;
13834;SDS011;6988;52.614;13.500;2023-04-28T16:48:30;9.53;;;5.63;;
13834;SDS011;6988;52.614;13.500;2023-04-28T16:53:22;10.47;;;5.90;;
13834;SDS011;6988;52.614;13.500;2023-04-28T16:58:14;9.33;;;5.97;;
13834;SDS011;6988;52.614;13.500;2023-04-28T17:03:05;7.77;;;5.17;;
13834;SDS011;6988;52.614;13.500;2023-04-28T17:07:58;8.80;;;5.23;;
13834;SDS011;6988;52.614;13.500;2023-04-28T17:12:51;15.00;;;6.63;;
13834;SDS011;6988;52.614;13.500;2023-04-28T17:17:43;10.73;;;6.50;;
13834;SDS011;6988;52.614;13.500;2023-04-28T17:22:41;9.73;;;5.93;;
13834;SDS011;6988;52.614;13.500;2023-04-28T17:27:35;12.67;;;6.57;;
13834;SDS011;6988;52.614;13.500;2023-04-28T17:32:27;8.07;;;6.10;;
13834;SDS011;6988;52.614;13.500;2023-04-28T17:37:21;10.17;;;6.70;;
13834;SDS011;6988;52.614;13.500;2023-04-28T17:42:13;9.90;;;7.37;;
13834;SDS011;6988;52.614;13.500;2023-04-28T17:47:07;12.20;;;7.97;;
13834;SDS011;6988;52.614;13.500;2023-04-28T17:51:59;9.70;;;7.40;;
13834;SDS011;6988;52.614;13.500;2023-04-28T17:56:51;9.17;;;6.93;;
13834;SDS011;6988;52.614;13.500;2023-04-28T18:01:43;9.57;;;7.00;;
13834;SDS011;6988;52.614;13.500;2023-04-28T18:06:36;12.13;;;7.20;;
13834;SDS011;6988;52.614;13.500;2023-04-28T18:11:28;11.80;;;7.77;;
13834;SDS011;6988;52.614;13.500;2023-04-28T18:16:20;10.93;;;7.87;;
13834;SDS011;6988;52.614;13.500;2023-04-28T18:21:12;11.00;;;8.00;;
13834;SDS011;6988;52.614;13.500;2023-04-28T18:26:05;10.30;;;8.10;;
13834;SDS011;6988;52.614;13.500;2023-04-28T18:30:57;12.13;;;8.37;;
13834;SDS011;6988;52.614;13.500;2023-04-28T18:35:49;8.53;;;7.33;;
13834;SDS011;6988;52.614;13.500;2023-04-28T18:40:49;8.70;;;7.30;;
13834;SDS011;6988;52.614;13.500;2023-04-28T18:45:42;8.23;;;7.40;;
13834;SDS011;6988;52.614;13.500;2023-04-28T18:50:34;12.43;;;8.07;;
13834;SDS011;6988;52.614;13.500;2023-04-28T18:55:26;10.83;;;7.70;;
13834;SDS011;6988;52.614;13.500;2023-04-28T19:00:18;10.60;;;7.57;;
13834;SDS011;6988;52.614;13.500;2023-04-28T19:05:13;10.20;;;7.27;;
13834;SDS011;6988;52.614;13.500;2023-04-28T19:10:05;11.80;;;8.00;;
13834;SDS011;6988;52.614;13.500;2023-04-28T19:14:58;11.53;;;8.67;;
13834;SDS011;6988;52.614;13.500;2023-04-28T19:19:53;12.63;;;9.27;;
13834;SDS011;6988;52.614;13.500;2023-04-28T19:24:47;17.77;;;10.23;;
13834;SDS011;6988;52.614;13.500;2023-04-28T19:29:38;12.77;;;9.63;;
13834;SDS011;6988;52.614;13.500;2023-04-28T19:34:30;13.90;;;10.00;;
13834;SDS011;6988;52.614;13.500;2023-04-28T19:39:22;14.30;;;10.37;;
13834;SDS011;6988;52.614;13.500;2023-04-28T19:44:15;12.63;;;9.97;;
13834;SDS011;6988;52.614;13.500;2023-04-28T19:49:07;11.70;;;8.77;;
13834;SDS011;6988;52.614;13.500;2023-04-28T19:53:59;9.80;;;8.13;;
13834;SDS011;6988;52.614;13.500;2023-04-28T19:58:51;11.00;;;8.50;;
13834;SDS011;6988;52.614;13.500;2023-04-28T20:03:44;11.27;;;8.10;;
13834;SDS011;6988;52.614;13.500;2023-04-28T20:08:36;12.07;;;8.00;;
13834;SDS011;6988;52.614;13.500;2023-04-28T20:13:28;9.03;;;8.10;;
13834;SDS011;6988;52.614;13.500;2023-04-28T20:18:20;10.33;;;8.07;;
13834;SDS011;6988;52.614;13.500;2023-04-28T20:23:13;11.03;;;7.60;;
13834;SDS011;6988;52.614;13.500;2023-04-28T20:28:05;14.67;;;8.23;;
13834;SDS011;6988;52.614;13.500;2023-04-28T20:32:57;11.63;;;8.60;;
13834;SDS011;6988;52.614;13.500;2023-04-28T20:37:48;11.07;;;8.80;;
13834;SDS011;6988;52.614;13.500;2023-04-28T20:42:41;9.83;;;8.20;;
13834;SDS011;6988;52.614;13.500;2023-04-28T20:47:33;11.73;;;8.67;;
13834;SDS011;6988;52.614;13.500;2023-04-28T20:52:25;11.27;;;8.70;;
13834;SDS011;6988;52.614;13.500;2023-04-28T20:57:17;11.30;;;9.07;;
13834;SDS011;6988;52.614;13.500;2023-04-28T21:02:10;10.50;;;7.80;;
13834;SDS011;6988;52.614;13.500;2023-04-28T21:07:02;11.93;;;7.80;;
13834;SDS011;6988;52.614;13.500;2023-04-28T21:11:54;12.07;;;8.73;;
13834;SDS011;6988;52.614;13.500;2023-04-28T21:16:45;11.00;;;7.63;;
13834;SDS011;6988;52.614;13.500;2023-04-28T21:21:39;11.10;;;7.77;;
13834;SDS011;6988;52.614;13.500;2023-04-28T21:26:31;14.10;;;8.30;;
13834;SDS011;6988;52.614;13.500;2023-04-28T21:31:22;9.63;;;8.27;;
13834;SDS011;6988;52.614;13.500;2023-04-28T21:36:14;11.87;;;7.87;;
13834;SDS011;6988;52.614;13.500;2023-04-28T21:41:07;10.53;;;8.53;;
13834;SDS011;6988;52.614;13.500;2023-04-28T22:04:11;10.03;;;7.27;;
13834;SDS011;6988;52.614;13.500;2023-04-28T22:09:03;7.40;;;6.50;;
13834;SDS011;6988;52.614;13.500;2023-04-28T22:13:55;8.67;;;7.03;;
13834;SDS011;6988;52.614;13.500;2023-04-28T22:18:47;9.47;;;7.60;;
13834;SDS011;6988;52.614;13.500;2023-04-28T22:23:40;9.17;;;7.50;;
13834;SDS011;6988;52.614;13.500;2023-04-28T22:28:32;8.73;;;6.43;;
13834;SDS011;6988;52.614;13.500;2023-04-28T22:33:24;7.50;;;5.93;;
13834;SDS011;6988;52.614;13.500;2023-04-28T22:38:16;8.67;;;6.30;;
13834;SDS011;6988;52.614;13.500;2023-04-28T22:43:09;7.80;;;6.60;;
13834;SDS011;6988;52.614;13.500;2023-04-28T22:48:01;7.57;;;5.90;;
13834;SDS011;6988;52.614;13.500;2023-04-28T22:52:56;8.13;;;6.87;;
13834;SDS011;6988;52.614;13.500;2023-04-28T22:57:48;8.87;;;6.60;;
13834;SDS011;6988;52.614;13.500;2023-04-28T23:02:41;10.23;;;7.00;;
13834;SDS011;6988;52.614;13.500;2023-04-28T23:07:33;9.27;;;6.70;;
13834;SDS011;6988;52.614;13.500;2023-04-28T23:12:25;10.30;;;6.90;;
13834;SDS011;6988;52.614;13.500;2023-04-28T23:17:18;9.43;;;7.27;;
13834;SDS011;6988;52.614;13.500;2023-04-28T23:22:11;11.77;;;7.17;;
13834;SDS011;6988;52.614;13.500;2023-04-28T23:27:03;10.97;;;6.83;;
13834;SDS011;6988;52.614;13.500;2023-04-28T23:31:55;8.43;;;6.80;;
13834;SDS011;6988;52.614;13.500;2023-04-28T23:36:47;8.77;;;6.47;;
13834;SDS011;6988;52.614;13.500;2023-04-28T23:41:41;8.57;;;6.40;;
13834;SDS011;6988;52.614;13.500;2023-04-28T23:46:33;11.87;;;6.40;;
13834;SDS011;6988;52.614;13.500;2023-04-28T23:51:25;8.63;;;6.60;;
13834;SDS011;6988;52.614;13.500;2023-04-28T23:56:17;8.17;;;6.60;;
